sensor_id;sensor_type;location;lat;lon;timestamp;noise_LAeq;noise_LA_min;noise_LA_max;noise_LA01;noise_LA95
52872;Laerm;40124;52.198;9.902;2023-10-13T00:01:20;40.38;36.91;44.76;;
52872;Laerm;40124;52.198;9.902;2023-10-13T00:03:45;40.34;36.91;45.07;;
52872;Laerm;40124;52.198;9.902;2023-10-13T00:06:10;40.63;35.66;48.23;;
52872;Laerm;40124;52.198;9.902;2023-10-13T00:08:36;58.08;36.91;78.68;;
52872;Laerm;40124;52.198;9.902;2023-10-13T00:11:11;40.71;37.12;44.94;;
52872;Laerm;40124;52.198;9.902;2023-10-13T00:13:37;57.05;37.88;77.19;;
52872;Laerm;40124;52.198;9.902;2023-10-13T00:16:09;44.41;36.69;60.96;;
52872;Laerm;40124;52.198;9.902;2023-10-13T00:18:42;40.06;35.36;44.97;;
52872;Laerm;40124;52.198;9.902;2023-10-13T00:21:09;40.82;36.91;44.76;;
52872;Laerm;40124;52.198;9.902;2023-10-13T00:23:42;41.32;37.52;44.73;;
52872;Laerm;40124;52.198;9.902;2023-10-13T00:26:22;41.13;36.91;44.69;;
52872;Laerm;40124;52.198;9.902;2023-10-13T00:28:55;59.49;37.88;79.54;;
52872;Laerm;40124;52.198;9.902;2023-10-13T00:31:36;57.93;37.32;78.14;;
52872;Laerm;40124;52.198;9.902;2023-10-13T00:34:03;43.60;38.52;54.60;;
52872;Laerm;40124;52.198;9.902;2023-10-13T00:37:04;44.24;37.12;57.31;;
52872;Laerm;40124;52.198;9.902;2023-10-13T00:39:43;58.03;36.20;78.40;;
52872;Laerm;40124;52.198;9.902;2023-10-13T00:42:12;40.31;35.94;45.72;;
52872;Laerm;40124;52.198;9.902;2023-10-13T00:44:45;40.10;36.20;44.97;;
52872;Laerm;40124;52.198;9.902;2023-10-13T00:47:14;58.46;36.45;78.15;;
52872;Laerm;40124;52.198;9.902;2023-10-13T00:49:44;59.17;37.70;79.68;;
52872;Laerm;40124;52.198;9.902;2023-10-13T00:52:12;41.85;38.67;45.14;;
52872;Laerm;40124;52.198;9.902;2023-10-13T00:54:37;40.65;36.20;45.20;;
52872;Laerm;40124;52.198;9.902;2023-10-13T00:57:03;46.50;36.45;60.44;;
52872;Laerm;40124;52.198;9.902;2023-10-13T00:59:51;58.55;37.70;78.36;;
52872;Laerm;40124;52.198;9.902;2023-10-13T01:02:18;40.77;35.04;46.66;;
52872;Laerm;40124;52.198;9.902;2023-10-13T01:05:03;46.97;35.66;63.69;;
52872;Laerm;40124;52.198;9.902;2023-10-13T01:07:28;60.22;35.04;81.07;;
52872;Laerm;40124;52.198;9.902;2023-10-13T01:09:53;61.09;35.36;82.15;;
52872;Laerm;40124;52.198;9.902;2023-10-13T01:12:19;42.30;35.36;48.64;;
52872;Laerm;40124;52.198;9.902;2023-10-13T01:14:44;40.00;34.69;45.33;;
52872;Laerm;40124;52.198;9.902;2023-10-13T01:17:11;40.35;35.94;45.14;;
52872;Laerm;40124;52.198;9.902;2023-10-13T01:19:36;65.16;37.88;84.34;;
52872;Laerm;40124;52.198;9.902;2023-10-13T01:22:04;58.45;36.91;79.65;;
52872;Laerm;40124;52.198;9.902;2023-10-13T01:24:31;39.92;35.36;45.14;;
52872;Laerm;40124;52.198;9.902;2023-10-13T01:26:59;40.03;35.94;45.57;;
52872;Laerm;40124;52.198;9.902;2023-10-13T01:29:32;40.78;36.20;50.21;;
52872;Laerm;40124;52.198;9.902;2023-10-13T01:31:58;41.49;36.91;68.79;;
52872;Laerm;40124;52.198;9.902;2023-10-13T01:34:23;68.05;37.88;89.64;;
52872;Laerm;40124;52.198;9.902;2023-10-13T01:36:48;61.44;37.70;82.36;;
52872;Laerm;40124;52.198;9.902;2023-10-13T01:39:15;48.78;36.69;62.08;;
52872;Laerm;40124;52.198;9.902;2023-10-13T01:41:42;45.21;36.91;57.26;;
52872;Laerm;40124;52.198;9.902;2023-10-13T01:44:08;60.44;36.91;82.05;;
52872;Laerm;40124;52.198;9.902;2023-10-13T01:46:36;40.41;35.36;45.04;;
52872;Laerm;40124;52.198;9.902;2023-10-13T01:49:02;43.68;36.45;54.42;;
52872;Laerm;40124;52.198;9.902;2023-10-13T01:51:27;56.82;37.52;74.21;;
52872;Laerm;40124;52.198;9.902;2023-10-13T01:53:53;53.13;37.52;70.22;;
52872;Laerm;40124;52.198;9.902;2023-10-13T01:56:21;64.14;38.67;80.50;;
52872;Laerm;40124;52.198;9.902;2023-10-13T01:58:48;60.47;37.52;79.80;;
52872;Laerm;40124;52.198;9.902;2023-10-13T02:01:13;63.26;37.12;82.86;;
52872;Laerm;40124;52.198;9.902;2023-10-13T02:03:38;40.69;36.45;45.14;;
52872;Laerm;40124;52.198;9.902;2023-10-13T02:06:11;59.44;36.91;77.55;;
52872;Laerm;40124;52.198;9.902;2023-10-13T02:08:42;65.91;37.88;87.30;;
52872;Laerm;40124;52.198;9.902;2023-10-13T02:11:08;62.51;40.13;78.57;;
52872;Laerm;40124;52.198;9.902;2023-10-13T02:13:34;64.95;37.52;85.52;;
52872;Laerm;40124;52.198;9.902;2023-10-13T02:16:06;40.88;37.88;45.17;;
52872;Laerm;40124;52.198;9.902;2023-10-13T02:18:32;40.95;37.32;45.01;;
52872;Laerm;40124;52.198;9.902;2023-10-13T02:21:06;64.51;38.05;84.86;;
52872;Laerm;40124;52.198;9.902;2023-10-13T02:23:37;63.30;37.88;80.32;;
52872;Laerm;40124;52.198;9.902;2023-10-13T02:26:08;42.01;37.70;48.64;;
52872;Laerm;40124;52.198;9.902;2023-10-13T02:28:40;59.49;36.91;80.01;;
52872;Laerm;40124;52.198;9.902;2023-10-13T02:31:05;65.62;36.69;84.36;;
52872;Laerm;40124;52.198;9.902;2023-10-13T02:33:32;69.96;38.67;89.62;;
52872;Laerm;40124;52.198;9.902;2023-10-13T02:36:02;47.32;37.12;64.50;;
52872;Laerm;40124;52.198;9.902;2023-10-13T02:38:33;54.79;38.05;75.35;;
52872;Laerm;40124;52.198;9.902;2023-10-13T02:41:10;40.82;37.52;45.54;;
52872;Laerm;40124;52.198;9.902;2023-10-13T02:43:36;64.19;38.05;81.47;;
52872;Laerm;40124;52.198;9.902;2023-10-13T02:46:02;55.29;38.37;73.80;;
52872;Laerm;40124;52.198;9.902;2023-10-13T02:48:28;69.60;38.21;88.92;;
52872;Laerm;40124;52.198;9.902;2023-10-13T02:51:06;63.47;41.68;79.83;;
52872;Laerm;40124;52.198;9.902;2023-10-13T02:53:40;64.86;39.81;80.18;;
52872;Laerm;40124;52.198;9.902;2023-10-13T02:56:06;60.75;37.88;77.87;;
52872;Laerm;40124;52.198;9.902;2023-10-13T02:58:32;69.93;40.23;88.84;;
52872;Laerm;40124;52.198;9.902;2023-10-13T03:01:04;57.20;37.52;77.62;;
52872;Laerm;40124;52.198;9.902;2023-10-13T03:03:35;56.84;41.06;76.96;;
52872;Laerm;40124;52.198;9.902;2023-10-13T03:06:00;64.98;41.75;84.70;;
52872;Laerm;40124;52.198;9.902;2023-10-13T03:08:26;64.77;41.82;78.60;;
52872;Laerm;40124;52.198;9.902;2023-10-13T03:10:52;68.33;42.29;84.71;;
52872;Laerm;40124;52.198;9.902;2023-10-13T03:13:19;67.49;43.99;81.52;;
52872;Laerm;40124;52.198;9.902;2023-10-13T03:15:44;68.68;42.93;84.58;;
52872;Laerm;40124;52.198;9.902;2023-10-13T03:18:12;70.47;42.03;88.96;;
52872;Laerm;40124;52.198;9.902;2023-10-13T03:20:43;66.32;44.03;80.95;;
52872;Laerm;40124;52.198;9.902;2023-10-13T03:23:08;70.31;40.71;85.40;;
52872;Laerm;40124;52.198;9.902;2023-10-13T03:25:34;69.79;40.89;85.86;;
52872;Laerm;40124;52.198;9.902;2023-10-13T03:28:07;70.59;45.04;84.16;;
52872;Laerm;40124;52.198;9.902;2023-10-13T03:30:35;67.08;42.47;81.38;;
52872;Laerm;40124;52.198;9.902;2023-10-13T03:33:01;68.90;39.21;80.62;;
52872;Laerm;40124;52.198;9.902;2023-10-13T03:35:31;69.03;45.97;82.78;;
52872;Laerm;40124;52.198;9.902;2023-10-13T03:38:11;70.30;44.76;85.67;;
52872;Laerm;40124;52.198;9.902;2023-10-13T03:40:46;72.67;45.80;87.59;;
52872;Laerm;40124;52.198;9.902;2023-10-13T03:43:14;67.57;40.89;85.70;;
52872;Laerm;40124;52.198;9.902;2023-10-13T03:45:44;70.35;43.99;84.63;;
52872;Laerm;40124;52.198;9.902;2023-10-13T03:48:13;72.16;40.13;88.61;;
52872;Laerm;40124;52.198;9.902;2023-10-13T03:50:51;70.77;40.80;86.54;;
52872;Laerm;40124;52.198;9.902;2023-10-13T03:53:28;69.74;42.09;84.82;;
52872;Laerm;40124;52.198;9.902;2023-10-13T03:55:58;71.02;48.31;84.03;;
52872;Laerm;40124;52.198;9.902;2023-10-13T03:58:51;68.59;41.82;82.97;;
52872;Laerm;40124;52.198;9.902;2023-10-13T04:01:18;71.71;42.82;86.50;;
52872;Laerm;40124;52.198;9.902;2023-10-13T04:03:48;68.68;42.35;83.43;;
52872;Laerm;40124;52.198;9.902;2023-10-13T04:06:29;68.97;43.68;82.72;;
52872;Laerm;40124;52.198;9.902;2023-10-13T04:09:16;70.32;40.80;83.93;;
52872;Laerm;40124;52.198;9.902;2023-10-13T04:12:03;67.62;40.98;81.85;;
52872;Laerm;40124;52.198;9.902;2023-10-13T04:14:29;64.60;40.62;80.22;;
52872;Laerm;40124;52.198;9.902;2023-10-13T04:17:13;72.05;43.33;89.69;;
52872;Laerm;40124;52.198;9.902;2023-10-13T04:19:47;70.77;41.89;88.43;;
52872;Laerm;40124;52.198;9.902;2023-10-13T04:22:31;68.95;43.63;81.36;;
52872;Laerm;40124;52.198;9.902;2023-10-13T04:25:21;67.83;46.35;81.66;;
52872;Laerm;40124;52.198;9.902;2023-10-13T04:28:06;73.08;46.23;87.26;;
52872;Laerm;40124;52.198;9.902;2023-10-13T04:33:20;72.19;52.32;84.79;;
52872;Laerm;40124;52.198;9.902;2023-10-13T04:36:10;69.77;41.75;85.66;;
52872;Laerm;40124;52.198;9.902;2023-10-13T04:38:49;70.75;42.09;85.41;;
52872;Laerm;40124;52.198;9.902;2023-10-13T04:41:35;71.67;49.23;82.34;;
52872;Laerm;40124;52.198;9.902;2023-10-13T04:44:05;71.16;45.60;83.85;;
52872;Laerm;40124;52.198;9.902;2023-10-13T04:46:48;71.59;49.15;84.62;;
52872;Laerm;40124;52.198;9.902;2023-10-13T04:49:13;71.58;48.07;81.41;;
52872;Laerm;40124;52.198;9.902;2023-10-13T04:51:57;70.25;41.75;80.26;;
52872;Laerm;40124;52.198;9.902;2023-10-13T04:54:44;71.41;43.24;84.84;;
52872;Laerm;40124;52.198;9.902;2023-10-13T04:57:12;73.08;45.86;88.77;;
52872;Laerm;40124;52.198;9.902;2023-10-13T04:59:56;72.02;51.12;87.37;;
52872;Laerm;40124;52.198;9.902;2023-10-13T05:02:40;69.80;48.55;81.39;;
52872;Laerm;40124;52.198;9.902;2023-10-13T05:05:07;71.59;44.35;84.91;;
52872;Laerm;40124;52.198;9.902;2023-10-13T05:07:38;72.56;46.62;85.23;;
52872;Laerm;40124;52.198;9.902;2023-10-13T05:10:22;70.53;44.54;83.94;;
52872;Laerm;40124;52.198;9.902;2023-10-13T05:13:06;72.72;51.98;85.07;;
52872;Laerm;40124;52.198;9.902;2023-10-13T05:15:50;72.86;50.39;85.56;;
52872;Laerm;40124;52.198;9.902;2023-10-13T05:18:34;71.82;53.94;81.78;;
52872;Laerm;40124;52.198;9.902;2023-10-13T05:21:18;70.87;50.91;80.91;;
52872;Laerm;40124;52.198;9.902;2023-10-13T05:24:03;76.28;50.89;95.24;;
52872;Laerm;40124;52.198;9.902;2023-10-13T05:26:48;72.31;46.93;85.11;;
52872;Laerm;40124;52.198;9.902;2023-10-13T05:29:31;71.22;49.98;83.89;;
52872;Laerm;40124;52.198;9.902;2023-10-13T05:32:15;71.41;52.83;80.64;;
52872;Laerm;40124;52.198;9.902;2023-10-13T05:34:59;73.36;47.26;86.68;;
52872;Laerm;40124;52.198;9.902;2023-10-13T05:37:43;72.36;57.62;84.99;;
52872;Laerm;40124;52.198;9.902;2023-10-13T05:40:27;72.85;51.82;83.30;;
52872;Laerm;40124;52.198;9.902;2023-10-13T05:43:11;71.36;49.36;81.77;;
52872;Laerm;40124;52.198;9.902;2023-10-13T05:46:02;69.59;45.07;81.29;;
52872;Laerm;40124;52.198;9.902;2023-10-13T05:48:46;72.51;49.41;82.04;;
52872;Laerm;40124;52.198;9.902;2023-10-13T05:51:37;72.94;46.97;86.13;;
52872;Laerm;40124;52.198;9.902;2023-10-13T05:54:03;71.99;44.23;84.58;;
52872;Laerm;40124;52.198;9.902;2023-10-13T05:56:41;68.82;46.93;80.55;;
52872;Laerm;40124;52.198;9.902;2023-10-13T05:59:25;70.72;50.05;84.51;;
52872;Laerm;40124;52.198;9.902;2023-10-13T06:02:08;70.65;46.69;86.74;;
52872;Laerm;40124;52.198;9.902;2023-10-13T06:04:52;72.38;53.05;86.34;;
52872;Laerm;40124;52.198;9.902;2023-10-13T06:07:36;70.64;44.56;87.06;;
52872;Laerm;40124;52.198;9.902;2023-10-13T06:10:20;69.74;46.38;79.63;;
52872;Laerm;40124;52.198;9.902;2023-10-13T06:13:04;72.12;46.71;86.53;;
52872;Laerm;40124;52.198;9.902;2023-10-13T06:15:48;72.80;49.55;88.03;;
52872;Laerm;40124;52.198;9.902;2023-10-13T06:18:32;74.43;56.54;92.37;;
52872;Laerm;40124;52.198;9.902;2023-10-13T06:21:16;68.62;44.07;80.34;;
52872;Laerm;40124;52.198;9.902;2023-10-13T06:24:00;71.24;51.80;88.92;;
52872;Laerm;40124;52.198;9.902;2023-10-13T06:26:43;71.31;46.95;87.62;;
52872;Laerm;40124;52.198;9.902;2023-10-13T06:29:27;69.59;45.39;84.23;;
52872;Laerm;40124;52.198;9.902;2023-10-13T06:31:52;72.28;47.08;87.91;;
52872;Laerm;40124;52.198;9.902;2023-10-13T06:34:22;69.95;48.84;83.03;;
52872;Laerm;40124;52.198;9.902;2023-10-13T06:37:02;71.90;55.56;86.65;;
52872;Laerm;40124;52.198;9.902;2023-10-13T06:39:27;73.14;51.64;87.69;;
52872;Laerm;40124;52.198;9.902;2023-10-13T06:42:02;69.41;46.23;82.84;;
52872;Laerm;40124;52.198;9.902;2023-10-13T06:44:28;71.11;45.48;87.40;;
52872;Laerm;40124;52.198;9.902;2023-10-13T06:46:57;71.04;47.34;85.39;;
52872;Laerm;40124;52.198;9.902;2023-10-13T06:49:22;70.06;51.40;81.05;;
52872;Laerm;40124;52.198;9.902;2023-10-13T06:51:48;72.00;46.01;88.40;;
52872;Laerm;40124;52.198;9.902;2023-10-13T06:54:13;75.76;49.64;93.36;;
52872;Laerm;40124;52.198;9.902;2023-10-13T06:56:50;78.97;50.86;103.28;;
52872;Laerm;40124;52.198;9.902;2023-10-13T06:59:18;70.37;48.00;84.72;;
52872;Laerm;40124;52.198;9.902;2023-10-13T07:01:43;70.57;48.83;81.40;;
52872;Laerm;40124;52.198;9.902;2023-10-13T07:04:09;74.05;48.63;90.36;;
52872;Laerm;40124;52.198;9.902;2023-10-13T07:06:41;71.68;49.16;85.85;;
52872;Laerm;40124;52.198;9.902;2023-10-13T07:09:14;69.11;47.12;83.22;;
52872;Laerm;40124;52.198;9.902;2023-10-13T07:12:04;69.44;45.48;81.91;;
52872;Laerm;40124;52.198;9.902;2023-10-13T07:14:41;69.36;47.38;81.44;;
52872;Laerm;40124;52.198;9.902;2023-10-13T07:17:06;67.24;44.51;79.93;;
52872;Laerm;40124;52.198;9.902;2023-10-13T07:19:33;71.60;44.73;87.73;;
52872;Laerm;40124;52.198;9.902;2023-10-13T07:21:59;69.31;47.32;80.34;;
52872;Laerm;40124;52.198;9.902;2023-10-13T07:24:25;73.77;47.26;88.97;;
52872;Laerm;40124;52.198;9.902;2023-10-13T07:26:52;69.08;47.50;81.75;;
52872;Laerm;40124;52.198;9.902;2023-10-13T07:29:27;67.25;44.47;80.27;;
52872;Laerm;40124;52.198;9.902;2023-10-13T07:31:52;71.19;51.59;84.38;;
52872;Laerm;40124;52.198;9.902;2023-10-13T07:34:17;71.31;46.05;84.73;;
52872;Laerm;40124;52.198;9.902;2023-10-13T07:36:56;72.06;51.47;87.89;;
52872;Laerm;40124;52.198;9.902;2023-10-13T07:39:25;72.17;43.76;89.44;;
52872;Laerm;40124;52.198;9.902;2023-10-13T07:41:51;71.89;45.04;84.87;;
52872;Laerm;40124;52.198;9.902;2023-10-13T07:44:36;69.57;48.23;81.28;;
52872;Laerm;40124;52.198;9.902;2023-10-13T07:47:02;71.90;47.55;85.35;;
52872;Laerm;40124;52.198;9.902;2023-10-13T07:49:29;72.77;45.75;87.85;;
52872;Laerm;40124;52.198;9.902;2023-10-13T07:51:58;71.75;53.15;88.12;;
52872;Laerm;40124;52.198;9.902;2023-10-13T07:54:26;71.61;46.07;84.99;;
52872;Laerm;40124;52.198;9.902;2023-10-13T07:56:51;70.37;52.08;85.24;;
52872;Laerm;40124;52.198;9.902;2023-10-13T07:59:18;72.22;50.30;86.08;;
52872;Laerm;40124;52.198;9.902;2023-10-13T08:01:48;71.19;50.16;85.57;;
52872;Laerm;40124;52.198;9.902;2023-10-13T08:04:33;70.86;50.95;89.72;;
52872;Laerm;40124;52.198;9.902;2023-10-13T08:07:00;73.26;53.40;86.73;;
52872;Laerm;40124;52.198;9.902;2023-10-13T08:09:37;69.95;46.52;82.57;;
52872;Laerm;40124;52.198;9.902;2023-10-13T08:12:05;68.71;44.87;81.86;;
52872;Laerm;40124;52.198;9.902;2023-10-13T08:14:32;68.07;45.42;80.78;;
52872;Laerm;40124;52.198;9.902;2023-10-13T08:16:59;73.28;55.90;86.30;;
52872;Laerm;40124;52.198;9.902;2023-10-13T08:19:31;69.36;45.86;81.23;;
52872;Laerm;40124;52.198;9.902;2023-10-13T08:22:09;67.35;46.71;79.78;;
52872;Laerm;40124;52.198;9.902;2023-10-13T08:24:44;69.56;48.36;84.71;;
52872;Laerm;40124;52.198;9.902;2023-10-13T08:27:09;68.18;47.79;80.73;;
52872;Laerm;40124;52.198;9.902;2023-10-13T08:29:41;66.67;51.14;79.04;;
52872;Laerm;40124;52.198;9.902;2023-10-13T08:32:24;71.05;49.75;87.01;;
52872;Laerm;40124;52.198;9.902;2023-10-13T08:34:55;70.92;52.14;85.67;;
52872;Laerm;40124;52.198;9.902;2023-10-13T08:37:24;70.03;48.34;84.68;;
52872;Laerm;40124;52.198;9.902;2023-10-13T08:39:53;69.74;46.66;81.23;;
52872;Laerm;40124;52.198;9.902;2023-10-13T08:42:37;67.82;48.46;84.91;;
52872;Laerm;40124;52.198;9.902;2023-10-13T08:45:15;75.44;45.91;93.41;;
52872;Laerm;40124;52.198;9.902;2023-10-13T08:48:06;70.01;43.24;89.40;;
52872;Laerm;40124;52.198;9.902;2023-10-13T08:53:21;74.27;52.42;90.11;;
52872;Laerm;40124;52.198;9.902;2023-10-13T08:55:54;69.56;48.36;85.60;;
52872;Laerm;40124;52.198;9.902;2023-10-13T08:58:40;69.06;49.12;82.47;;
52872;Laerm;40124;52.198;9.902;2023-10-13T09:01:22;67.08;45.39;82.00;;
52872;Laerm;40124;52.198;9.902;2023-10-13T09:04:01;68.68;46.71;81.68;;
52872;Laerm;40124;52.198;9.902;2023-10-13T09:06:46;68.62;50.48;82.47;;
52872;Laerm;40124;52.198;9.902;2023-10-13T09:09:22;69.40;48.21;81.33;;
52872;Laerm;40124;52.198;9.902;2023-10-13T09:12:11;69.53;45.77;81.67;;
52872;Laerm;40124;52.198;9.902;2023-10-13T09:14:37;69.21;52.90;82.17;;
52872;Laerm;40124;52.198;9.902;2023-10-13T09:17:09;67.55;46.15;82.14;;
52872;Laerm;40124;52.198;9.902;2023-10-13T09:19:55;70.36;44.62;84.57;;
52872;Laerm;40124;52.198;9.902;2023-10-13T09:22:27;69.10;42.88;84.08;;
52872;Laerm;40124;52.198;9.902;2023-10-13T09:24:57;72.57;43.72;92.93;;
52872;Laerm;40124;52.198;9.902;2023-10-13T09:27:26;70.67;48.80;86.55;;
52872;Laerm;40124;52.198;9.902;2023-10-13T09:29:58;68.99;46.95;80.16;;
52872;Laerm;40124;52.198;9.902;2023-10-13T09:32:44;70.03;49.30;83.31;;
52872;Laerm;40124;52.198;9.902;2023-10-13T09:35:19;68.16;44.47;81.41;;
52872;Laerm;40124;52.198;9.902;2023-10-13T09:37:47;69.82;45.42;83.61;;
52872;Laerm;40124;52.198;9.902;2023-10-13T09:40:15;71.64;48.49;85.00;;
52872;Laerm;40124;52.198;9.902;2023-10-13T09:42:52;70.42;49.02;83.41;;
52872;Laerm;40124;52.198;9.902;2023-10-13T09:45:21;69.56;49.23;80.84;;
52872;Laerm;40124;52.198;9.902;2023-10-13T09:47:52;71.83;48.43;89.92;;
52872;Laerm;40124;52.198;9.902;2023-10-13T09:50:18;67.74;44.43;83.05;;
52872;Laerm;40124;52.198;9.902;2023-10-13T09:52:49;70.87;48.20;84.71;;
52872;Laerm;40124;52.198;9.902;2023-10-13T09:55:20;73.48;51.70;88.36;;
52872;Laerm;40124;52.198;9.902;2023-10-13T09:57:51;67.40;45.86;79.59;;
52872;Laerm;40124;52.198;9.902;2023-10-13T10:00:22;69.30;46.78;84.20;;
52872;Laerm;40124;52.198;9.902;2023-10-13T10:03:00;71.35;45.63;91.56;;
52872;Laerm;40124;52.198;9.902;2023-10-13T10:05:41;71.18;47.88;84.50;;
52872;Laerm;40124;52.198;9.902;2023-10-13T10:08:06;72.64;48.32;85.79;;
52872;Laerm;40124;52.198;9.902;2023-10-13T10:13:39;68.88;46.33;79.86;;
52872;Laerm;40124;52.198;9.902;2023-10-13T10:16:11;68.53;43.81;81.19;;
52872;Laerm;40124;52.198;9.902;2023-10-13T10:18:40;68.88;49.50;84.10;;
52872;Laerm;40124;52.198;9.902;2023-10-13T10:21:06;65.79;44.65;78.37;;
52872;Laerm;40124;52.198;9.902;2023-10-13T10:23:35;69.77;49.95;80.89;;
52872;Laerm;40124;52.198;9.902;2023-10-13T10:26:09;70.58;53.08;86.66;;
52872;Laerm;40124;52.198;9.902;2023-10-13T10:28:39;69.32;51.16;79.33;;
52872;Laerm;40124;52.198;9.902;2023-10-13T10:31:06;68.69;46.97;83.77;;
52872;Laerm;40124;52.198;9.902;2023-10-13T10:33:34;68.71;51.23;78.46;;
52872;Laerm;40124;52.198;9.902;2023-10-13T10:36:00;68.37;45.36;82.18;;
52872;Laerm;40124;52.198;9.902;2023-10-13T10:38:25;70.28;49.51;83.09;;
52872;Laerm;40124;52.198;9.902;2023-10-13T10:40:57;69.88;45.20;84.80;;
52872;Laerm;40124;52.198;9.902;2023-10-13T10:43:29;71.34;51.17;82.35;;
52872;Laerm;40124;52.198;9.902;2023-10-13T10:49:07;70.55;51.35;83.06;;
52872;Laerm;40124;52.198;9.902;2023-10-13T10:51:33;69.94;49.10;81.30;;
52872;Laerm;40124;52.198;9.902;2023-10-13T10:54:08;71.21;51.12;85.30;;
52872;Laerm;40124;52.198;9.902;2023-10-13T10:56:42;70.67;50.90;82.93;;
52872;Laerm;40124;52.198;9.902;2023-10-13T10:59:08;71.95;43.77;90.59;;
52872;Laerm;40124;52.198;9.902;2023-10-13T11:01:42;71.57;45.30;90.24;;
52872;Laerm;40124;52.198;9.902;2023-10-13T11:04:12;71.59;49.65;87.62;;
52872;Laerm;40124;52.198;9.902;2023-10-13T11:06:50;71.82;49.44;86.82;;
52872;Laerm;40124;52.198;9.902;2023-10-13T11:09:23;70.12;52.22;80.27;;
52872;Laerm;40124;52.198;9.902;2023-10-13T11:11:51;72.49;53.17;90.85;;
52872;Laerm;40124;52.198;9.902;2023-10-13T11:14:21;70.49;51.00;80.73;;
52872;Laerm;40124;52.198;9.902;2023-10-13T11:16:50;71.59;47.10;87.00;;
52872;Laerm;40124;52.198;9.902;2023-10-13T11:19:16;71.21;49.88;82.46;;
52872;Laerm;40124;52.198;9.902;2023-10-13T11:21:41;71.17;50.18;81.57;;
52872;Laerm;40124;52.198;9.902;2023-10-13T11:24:06;72.52;44.94;90.01;;
52872;Laerm;40124;52.198;9.902;2023-10-13T11:26:36;71.16;47.40;86.28;;
52872;Laerm;40124;52.198;9.902;2023-10-13T11:29:14;69.97;48.63;79.91;;
52872;Laerm;40124;52.198;9.902;2023-10-13T11:31:39;71.42;49.70;86.09;;
52872;Laerm;40124;52.198;9.902;2023-10-13T11:34:04;72.42;48.78;86.66;;
52872;Laerm;40124;52.198;9.902;2023-10-13T11:36:31;72.93;50.25;89.13;;
52872;Laerm;40124;52.198;9.902;2023-10-13T11:38:58;72.39;49.46;84.94;;
52872;Laerm;40124;52.198;9.902;2023-10-13T11:41:23;72.87;47.46;86.50;;
52872;Laerm;40124;52.198;9.902;2023-10-13T11:43:49;72.01;50.40;86.71;;
52872;Laerm;40124;52.198;9.902;2023-10-13T11:46:14;72.23;48.58;86.86;;
52872;Laerm;40124;52.198;9.902;2023-10-13T11:48:40;72.60;49.34;83.67;;
52872;Laerm;40124;52.198;9.902;2023-10-13T11:51:09;73.45;47.67;87.66;;
52872;Laerm;40124;52.198;9.902;2023-10-13T11:53:42;73.01;51.76;86.15;;
52872;Laerm;40124;52.198;9.902;2023-10-13T11:56:08;70.79;51.39;81.27;;
52872;Laerm;40124;52.198;9.902;2023-10-13T11:58:35;71.13;49.06;81.74;;
52872;Laerm;40124;52.198;9.902;2023-10-13T12:01:00;70.21;46.15;83.31;;
52872;Laerm;40124;52.198;9.902;2023-10-13T12:03:38;72.61;45.80;83.73;;
52872;Laerm;40124;52.198;9.902;2023-10-13T12:06:21;70.17;47.20;80.20;;
52872;Laerm;40124;52.198;9.902;2023-10-13T12:09:05;70.42;50.37;80.51;;
52872;Laerm;40124;52.198;9.902;2023-10-13T12:11:37;72.10;47.83;82.08;;
52872;Laerm;40124;52.198;9.902;2023-10-13T12:14:04;73.43;53.66;86.12;;
52872;Laerm;40124;52.198;9.902;2023-10-13T12:16:36;71.82;48.07;80.79;;
52872;Laerm;40124;52.198;9.902;2023-10-13T12:19:01;71.06;47.34;81.76;;
52872;Laerm;40124;52.198;9.902;2023-10-13T12:21:27;72.13;50.37;85.64;;
52872;Laerm;40124;52.198;9.902;2023-10-13T12:23:52;73.22;53.08;87.92;;
52872;Laerm;40124;52.198;9.902;2023-10-13T12:26:18;71.93;50.88;86.61;;
52872;Laerm;40124;52.198;9.902;2023-10-13T12:28:44;71.28;52.81;81.12;;
52872;Laerm;40124;52.198;9.902;2023-10-13T12:31:16;69.98;47.36;80.34;;
52872;Laerm;40124;52.198;9.902;2023-10-13T12:33:42;70.52;48.76;87.15;;
52872;Laerm;40124;52.198;9.902;2023-10-13T12:36:07;73.99;52.36;89.92;;
52872;Laerm;40124;52.198;9.902;2023-10-13T12:38:51;70.30;50.97;80.64;;
52872;Laerm;40124;52.198;9.902;2023-10-13T12:41:37;72.01;52.71;83.41;;
52872;Laerm;40124;52.198;9.902;2023-10-13T12:44:21;69.37;51.10;84.25;;
52872;Laerm;40124;52.198;9.902;2023-10-13T12:47:05;71.24;47.84;85.79;;
52872;Laerm;40124;52.198;9.902;2023-10-13T12:49:49;70.54;49.23;80.56;;
52872;Laerm;40124;52.198;9.902;2023-10-13T12:52:14;71.77;51.70;83.11;;
52872;Laerm;40124;52.198;9.902;2023-10-13T12:54:45;72.68;55.89;86.31;;
52872;Laerm;40124;52.198;9.902;2023-10-13T12:57:15;71.26;52.60;80.51;;
52872;Laerm;40124;52.198;9.902;2023-10-13T12:59:40;72.41;54.51;82.86;;
52872;Laerm;40124;52.198;9.902;2023-10-13T13:02:06;72.52;45.14;91.19;;
52872;Laerm;40124;52.198;9.902;2023-10-13T13:04:32;71.53;46.62;81.76;;
52872;Laerm;40124;52.198;9.902;2023-10-13T13:07:01;71.74;46.76;81.69;;
52872;Laerm;40124;52.198;9.902;2023-10-13T13:09:28;72.61;51.82;86.18;;
52872;Laerm;40124;52.198;9.902;2023-10-13T13:11:53;72.59;51.95;81.38;;
52872;Laerm;40124;52.198;9.902;2023-10-13T13:14:22;70.60;50.81;80.10;;
52872;Laerm;40124;52.198;9.902;2023-10-13T13:16:47;71.13;49.74;81.42;;
52872;Laerm;40124;52.198;9.902;2023-10-13T13:19:13;69.67;49.30;81.33;;
52872;Laerm;40124;52.198;9.902;2023-10-13T13:21:39;70.25;48.02;79.80;;
52872;Laerm;40124;52.198;9.902;2023-10-13T13:24:05;70.83;50.97;79.53;;
52872;Laerm;40124;52.198;9.902;2023-10-13T13:26:35;70.93;44.69;80.59;;
52872;Laerm;40124;52.198;9.902;2023-10-13T13:29:01;71.13;48.08;88.08;;
52872;Laerm;40124;52.198;9.902;2023-10-13T13:31:26;72.83;48.81;83.02;;
52872;Laerm;40124;52.198;9.902;2023-10-13T13:33:54;72.04;51.67;84.92;;
52872;Laerm;40124;52.198;9.902;2023-10-13T13:36:19;72.27;51.70;86.49;;
52872;Laerm;40124;52.198;9.902;2023-10-13T13:38:44;70.00;48.91;80.67;;
52872;Laerm;40124;52.198;9.902;2023-10-13T13:41:16;71.58;46.76;90.08;;
52872;Laerm;40124;52.198;9.902;2023-10-13T13:43:45;70.70;49.15;80.87;;
52872;Laerm;40124;52.198;9.902;2023-10-13T13:46:20;71.98;48.42;85.67;;
52872;Laerm;40124;52.198;9.902;2023-10-13T13:48:50;71.21;50.02;81.29;;
52872;Laerm;40124;52.198;9.902;2023-10-13T13:51:16;70.79;45.20;80.72;;
52872;Laerm;40124;52.198;9.902;2023-10-13T13:53:44;70.79;50.16;80.10;;
52872;Laerm;40124;52.198;9.902;2023-10-13T13:56:10;71.79;46.97;82.84;;
52872;Laerm;40124;52.198;9.902;2023-10-13T13:58:36;69.85;46.28;80.07;;
52872;Laerm;40124;52.198;9.902;2023-10-13T14:01:03;70.08;47.23;83.75;;
52872;Laerm;40124;52.198;9.902;2023-10-13T14:03:38;70.39;44.73;82.01;;
52872;Laerm;40124;52.198;9.902;2023-10-13T14:06:09;70.82;49.85;81.49;;
52872;Laerm;40124;52.198;9.902;2023-10-13T14:08:41;70.57;47.38;80.64;;
52872;Laerm;40124;52.198;9.902;2023-10-13T14:11:07;71.30;48.25;81.32;;
52872;Laerm;40124;52.198;9.902;2023-10-13T14:13:38;70.13;48.52;79.55;;
52872;Laerm;40124;52.198;9.902;2023-10-13T14:16:18;73.02;51.51;86.64;;
52872;Laerm;40124;52.198;9.902;2023-10-13T14:18:47;71.67;44.27;81.06;;
52872;Laerm;40124;52.198;9.902;2023-10-13T14:21:12;70.16;49.34;81.61;;
52872;Laerm;40124;52.198;9.902;2023-10-13T14:23:58;72.10;50.62;85.39;;